Aeroporto :
LOGIN :

Iscrizione | Disclaimer

   EN    FR    IT 

 










Sommario :    VFR   VFR Marginale   IFR   IFR Intensivo   IFR Molto Intensivo
Visibilità : 
Base nubi : 
>= 8 km
>= 3000ft
5 / 8 km
1000 / 3000 ft
1500m / 5 km
500 / 1000 ft
800 / 1500m
200 / 500 ft
< 800m
< 200 ft
Simboli :   Temporali  Nebbia  Neve Forte  Precipitazioni Forti  Vento > 20 kt
SIGMETs :   Varie  Temporali  Ghiacco  Turbolenza  Onda orograficha  Ceneri Vulcaniche






- Altitudine del aeroporto : 992 ft


LIRV - Roma Viterbo Air Force Base (military)

ULTIMO METAR :
  • 200755Z 04015KT CAVOK 06/M00 Q1032 RMK BKN FEW060 BKN100 MON E SE LIB NC VIS MIN 9999 WIND THR04 /////KT BLU

METARs OBSOLETI :
  • 200655Z 04015KT CAVOK 06/M01 Q1032
  • 200555Z 36015KT CAVOK 06/M00 Q1031 RMK BKN SCT090 BKN200 MON E SE LIB VIS MIN 9999 WIND THR04 /////KT BLU

TAF TAF LIRV
Valido dal 20 a 07 ore il 20 a 15 ore UTC


200600Z 2007/2015 04015KT CAVOK
TEMPO 2009/2015 05012G22KT



MetMap, La meteo Aeronautica in un colpo d'occhio ! - Copyright ORBIFLY Dicembre 2007 - Disclaimer

ORBIFLY MET'MAP TEAM :

Programmazione e sviluppo : Alexandra Zaïnal
Concezione : Baudouin d'Aumeries
Aiuto per la programmazione : Marc-Olivier Méhu
Supporto tecnico e logistico : Manuel Goepfert
Aiuto per la traduzione : Arnaldo La Scala

Contatto : metmap@orbifly.com




FONTI E CREDITI :

   NOAA